Sea Drift — WDC2818 — position and weather

sailwx.info

Track history (hours):
 
Tides and Currents Weather Stations Pressure Air Temp Water Temp Dewpoint Dewpoint Depression Visibility Wind Speed Wind Dir Waves Ship Positions

Sea Drift

Owner: Marquette Transportation Company Gulf-Inland, LLC, Jefferson, LA. More information available from US FCC via Universal Licensing System and Coast Guard Vessel Documentation Center.

Last reported at 2015-Sep-04 00:29 UTC. Time now 2015-Sep-04 23:18 UTC.
Position N 29°30' W 094°52'.

Length 23 m; draft 3 m.

Type: Towing. MMSI: 366998080.

Date/timePositionNaut miles runAvg speedWind from/ knotsBaromVisibWave heightAir tempDewpointWater temp
2015-Sep-04 00:29N 29°30' W 094°52'10 8.0
2015-Sep-03 23:16N 29°38' W 094°58'6 7.6
2015-Sep-03 22:33N 29°43' W 095°01'4 4.1
2015-Sep-03 21:30N 29°46' W 095°05'4 4.2
2015-Sep-03 20:33N 29°43' W 095°01'5 5.1
2015-Sep-03 19:33N 29°39' W 094°58'6 5.9
2015-Sep-03 18:33N 29°34' W 094°55'4 1.4
2015-Sep-03 15:24N 29°30' W 094°52'7 7.9
2015-Sep-03 14:33N 29°36' W 094°57'7 6.7
2015-Sep-03 13:33N 29°42' W 095°00'6 6.2
2015-Sep-03 12:33N 29°46' W 095°05'1 0.0
2015-Sep-02 13:20N 29°45' W 095°06'1 0.0
2015-Aug-31 23:15N 29°46' W 095°05'1 1.3
2015-Aug-31 22:21N 29°47' W 095°06'0 0.0
2015-Aug-31 21:33N 29°47' W 095°06'0 0.0
2015-Aug-31 20:29N 29°47' W 095°06'1 0.1
2015-Aug-31 11:17N 29°46' W 095°05'0 0.2
2015-Aug-31 10:31N 29°46' W 095°06'0 0.0
2015-Aug-31 09:32N 29°46' W 095°06'0 0.0
2015-Aug-31 08:32N 29°46' W 095°06'0 0.0
2015-Aug-31 07:33N 29°46' W 095°06'0 0.0
2015-Aug-31 06:33N 29°46' W 095°06'0 0.0
2015-Aug-31 05:29N 29°46' W 095°06'0 0.0
2015-Aug-31 04:33N 29°46' W 095°06'0 0.0
2015-Aug-31 03:33N 29°46' W 095°06'0 0.0
2015-Aug-31 02:27N 29°46' W 095°06'0 0.0
2015-Aug-31 01:27N 29°46' W 095°06'0 0.0
2015-Aug-31 00:33N 29°46' W 095°06'0 0.0
2015-Aug-30 23:29N 29°46' W 095°06'0 0.0
2015-Aug-30 22:29N 29°46' W 095°06'0 0.0
2015-Aug-30 21:29N 29°46' W 095°06'0 0.0
2015-Aug-30 20:31N 29°46' W 095°06'0 0.0
2015-Aug-30 19:20N 29°46' W 095°06'0 0.0
2015-Aug-30 18:26N 29°46' W 095°06'0 0.0
2015-Aug-30 01:32N 29°46' W 095°06'1 1.0
2015-Aug-30 00:33N 29°47' W 095°05'0 0.0
2015-Aug-29 23:33N 29°47' W 095°05'0 0.0
2015-Aug-29 22:33N 29°47' W 095°05'0 0.0
2015-Aug-29 21:29N 29°47' W 095°05'0 0.0
2015-Aug-29 20:31N 29°47' W 095°05'0 0.0
2015-Aug-29 19:31N 29°47' W 095°05'0 0.0
2015-Aug-29 18:33N 29°47' W 095°05'0 0.0
2015-Aug-29 17:25N 29°47' W 095°05'0 0.0
2015-Aug-29 16:05N 29°47' W 095°05'0 0.0
2015-Aug-29 15:33N 29°47' W 095°05'0 0.0
2015-Aug-29 14:33N 29°47' W 095°05'0 0.0
2015-Aug-29 13:33N 29°47' W 095°05'0 0.0
2015-Aug-29 12:34N 29°47' W 095°05'1 0.8
2015-Aug-29 11:33N 29°46' W 095°05'6 6.0
2015-Aug-29 10:33N 29°42' W 094°60'8 7.6
2015-Aug-29 09:33N 29°35' W 094°56'9 7.7
2015-Aug-29 08:26N 29°27' W 094°51'202 4.1
2015-Aug-27 07:25N 29°37' W 090°59'6 6.1
2015-Aug-27 06:31N 29°33' W 090°54'6 6.1
2015-Aug-27 05:34N 29°32' W 090°48'4 4.3
2015-Aug-27 04:34N 29°34' W 090°43'3 3.2
2015-Aug-27 03:34N 29°37' W 090°41'5 4.9
2015-Aug-27 02:34N 29°35' W 090°36'6 5.5
2015-Aug-27 01:34N 29°34' W 090°30'35 2.5
2015-Aug-26 11:16N 29°55' W 089°58'0 0.5
2015-Aug-26 10:27N 29°55' W 089°59'0 0.0
2015-Aug-26 09:32N 29°55' W 089°59'0 0.0
2015-Aug-26 08:29N 29°55' W 089°59'0 0.0
2015-Aug-26 07:31N 29°55' W 089°59'0 0.0
2015-Aug-26 06:33N 29°55' W 089°59'0 0.0
2015-Aug-26 05:33N 29°55' W 089°59'0 0.0
2015-Aug-26 04:33N 29°56' W 089°59'0 0.0
2015-Aug-26 03:33N 29°56' W 089°59'0 0.2
2015-Aug-26 02:32N 29°56' W 089°59'0 0.0
2015-Aug-26 01:33N 29°56' W 089°59'0 0.0
2015-Aug-26 00:30N 29°56' W 089°59'0 0.0
2015-Aug-25 23:31N 29°56' W 089°59'0 0.0
2015-Aug-25 22:14N 29°56' W 089°59'  
Track history (hours):
 
Tides and Currents Weather Stations Pressure Air Temp Water Temp Dewpoint Dewpoint Depression Visibility Wind Speed Wind Dir Waves Ship Positions

Sea Drift

Owner: Marquette Transportation Company Gulf-Inland, LLC, Jefferson, LA. More information available from US FCC via Universal Licensing System and Coast Guard Vessel Documentation Center.

Last reported at 2015-Sep-04 00:29 UTC. Time now 2015-Sep-04 23:18 UTC.
Position N 29°30' W 094°52'.

Length 23 m; draft 3 m.

Type: Towing. MMSI: 366998080.

Date/timePositionNaut miles runAvg speedWind from/ knotsBaromVisibWave heightAir tempDewpointWater temp
2015-Sep-04 00:29N 29°30' W 094°52'10 8.0
2015-Sep-03 23:16N 29°38' W 094°58'6 7.6
2015-Sep-03 22:33N 29°43' W 095°01'4 4.1
2015-Sep-03 21:30N 29°46' W 095°05'4 4.2
2015-Sep-03 20:33N 29°43' W 095°01'5 5.1
2015-Sep-03 19:33N 29°39' W 094°58'6 5.9
2015-Sep-03 18:33N 29°34' W 094°55'4 1.4
2015-Sep-03 15:24N 29°30' W 094°52'7 7.9
2015-Sep-03 14:33N 29°36' W 094°57'7 6.7
2015-Sep-03 13:33N 29°42' W 095°00'6 6.2
2015-Sep-03 12:33N 29°46' W 095°05'1 0.0
2015-Sep-02 13:20N 29°45' W 095°06'1 0.0
2015-Aug-31 23:15N 29°46' W 095°05'1 1.3
2015-Aug-31 22:21N 29°47' W 095°06'0 0.0
2015-Aug-31 21:33N 29°47' W 095°06'0 0.0
2015-Aug-31 20:29N 29°47' W 095°06'1 0.1
2015-Aug-31 11:17N 29°46' W 095°05'0 0.2
2015-Aug-31 10:31N 29°46' W 095°06'0 0.0
2015-Aug-31 09:32N 29°46' W 095°06'0 0.0
2015-Aug-31 08:32N 29°46' W 095°06'0 0.0
2015-Aug-31 07:33N 29°46' W 095°06'0 0.0
2015-Aug-31 06:33N 29°46' W 095°06'0 0.0
2015-Aug-31 05:29N 29°46' W 095°06'0 0.0
2015-Aug-31 04:33N 29°46' W 095°06'0 0.0
2015-Aug-31 03:33N 29°46' W 095°06'0 0.0
2015-Aug-31 02:27N 29°46' W 095°06'0 0.0
2015-Aug-31 01:27N 29°46' W 095°06'0 0.0
2015-Aug-31 00:33N 29°46' W 095°06'0 0.0
2015-Aug-30 23:29N 29°46' W 095°06'0 0.0
2015-Aug-30 22:29N 29°46' W 095°06'0 0.0
2015-Aug-30 21:29N 29°46' W 095°06'0 0.0
2015-Aug-30 20:31N 29°46' W 095°06'0 0.0
2015-Aug-30 19:20N 29°46' W 095°06'0 0.0
2015-Aug-30 18:26N 29°46' W 095°06'0 0.0
2015-Aug-30 01:32N 29°46' W 095°06'1 1.0
2015-Aug-30 00:33N 29°47' W 095°05'0 0.0
2015-Aug-29 23:33N 29°47' W 095°05'0 0.0
2015-Aug-29 22:33N 29°47' W 095°05'0 0.0
2015-Aug-29 21:29N 29°47' W 095°05'0 0.0
2015-Aug-29 20:31N 29°47' W 095°05'0 0.0
2015-Aug-29 19:31N 29°47' W 095°05'0 0.0
2015-Aug-29 18:33N 29°47' W 095°05'0 0.0
2015-Aug-29 17:25N 29°47' W 095°05'0 0.0
2015-Aug-29 16:05N 29°47' W 095°05'0 0.0
2015-Aug-29 15:33N 29°47' W 095°05'0 0.0
2015-Aug-29 14:33N 29°47' W 095°05'0 0.0
2015-Aug-29 13:33N 29°47' W 095°05'0 0.0
2015-Aug-29 12:34N 29°47' W 095°05'1 0.8
2015-Aug-29 11:33N 29°46' W 095°05'6 6.0
2015-Aug-29 10:33N 29°42' W 094°60'8 7.6
2015-Aug-29 09:33N 29°35' W 094°56'9 7.7
2015-Aug-29 08:26N 29°27' W 094°51'202 4.1
2015-Aug-27 07:25N 29°37' W 090°59'6 6.1
2015-Aug-27 06:31N 29°33' W 090°54'6 6.1
2015-Aug-27 05:34N 29°32' W 090°48'4 4.3
2015-Aug-27 04:34N 29°34' W 090°43'3 3.2
2015-Aug-27 03:34N 29°37' W 090°41'5 4.9
2015-Aug-27 02:34N 29°35' W 090°36'6 5.5
2015-Aug-27 01:34N 29°34' W 090°30'35 2.5
2015-Aug-26 11:16N 29°55' W 089°58'0 0.5
2015-Aug-26 10:27N 29°55' W 089°59'0 0.0
2015-Aug-26 09:32N 29°55' W 089°59'0 0.0
2015-Aug-26 08:29N 29°55' W 089°59'0 0.0
2015-Aug-26 07:31N 29°55' W 089°59'0 0.0
2015-Aug-26 06:33N 29°55' W 089°59'0 0.0
2015-Aug-26 05:33N 29°55' W 089°59'0 0.0
2015-Aug-26 04:33N 29°56' W 089°59'0 0.0
2015-Aug-26 03:33N 29°56' W 089°59'0 0.2
2015-Aug-26 02:32N 29°56' W 089°59'0 0.0
2015-Aug-26 01:33N 29°56' W 089°59'0 0.0
2015-Aug-26 00:30N 29°56' W 089°59'0 0.0
2015-Aug-25 23:31N 29°56' W 089°59'0 0.0
2015-Aug-25 22:14N 29°56' W 089°59'  

Dump ship's entire track history